createdAt,value
2017-08-15T00:00:51.689Z,1.80
2017-08-15T00:03:19.502Z,2.17
2017-08-15T00:05:47.260Z,1.97
2017-08-15T00:08:15.148Z,2.60
2017-08-15T00:10:42.842Z,2.40
2017-08-15T00:13:10.618Z,2.57
2017-08-15T00:15:38.446Z,1.93
2017-08-15T00:18:06.260Z,2.17
2017-08-15T00:20:34.052Z,2.50
2017-08-15T00:23:01.761Z,2.40
2017-08-15T00:25:29.599Z,2.03
2017-08-15T00:27:58.330Z,2.57
2017-08-15T00:30:26.067Z,2.23
2017-08-15T00:32:53.840Z,2.47
2017-08-15T00:35:21.682Z,1.80
2017-08-15T00:37:49.480Z,2.03
2017-08-15T00:40:17.248Z,2.20
2017-08-15T00:42:45.003Z,2.20
2017-08-15T00:45:12.816Z,2.10
2017-08-15T00:47:40.546Z,2.90
2017-08-15T00:50:08.365Z,2.30
2017-08-15T00:52:36.189Z,2.70
2017-08-15T00:55:03.908Z,3.00
2017-08-15T00:57:31.772Z,2.10
2017-08-15T00:59:59.621Z,2.10
2017-08-15T01:02:27.513Z,2.50
2017-08-15T01:04:55.260Z,2.60
2017-08-15T01:07:23.001Z,2.10
2017-08-15T01:09:50.732Z,2.53
2017-08-15T01:12:18.603Z,1.93
2017-08-15T01:14:46.438Z,3.20
2017-08-15T01:17:14.276Z,2.20
2017-08-15T01:19:42.093Z,2.13
2017-08-15T01:22:09.923Z,2.47
2017-08-15T01:24:37.802Z,1.90
2017-08-15T01:27:06.191Z,2.57
2017-08-15T01:29:33.903Z,2.70
2017-08-15T01:32:01.793Z,2.20
2017-08-15T01:34:29.541Z,2.20
2017-08-15T01:36:57.347Z,1.97
2017-08-15T01:39:25.056Z,2.13
2017-08-15T01:41:52.857Z,1.90
2017-08-15T01:44:20.615Z,2.70
2017-08-15T01:46:48.304Z,2.10
2017-08-15T01:49:16.085Z,2.70
2017-08-15T01:51:43.821Z,1.90
2017-08-15T01:54:11.531Z,2.80
2017-08-15T01:56:39.380Z,2.40
2017-08-15T01:59:07.086Z,2.57
2017-08-15T02:01:34.886Z,2.30
2017-08-15T02:04:02.650Z,2.60
2017-08-15T02:06:30.355Z,2.47
2017-08-15T02:08:58.160Z,2.47
2017-08-15T02:11:25.983Z,2.13
2017-08-15T02:13:53.742Z,1.73
2017-08-15T02:16:21.541Z,2.20
2017-08-15T02:18:49.245Z,2.20
2017-08-15T02:21:16.988Z,2.57
2017-08-15T02:23:44.700Z,2.33
2017-08-15T02:26:12.509Z,2.23
2017-08-15T02:28:40.356Z,2.57
2017-08-15T02:31:08.155Z,1.90
2017-08-15T02:33:35.857Z,1.90
2017-08-15T02:36:03.701Z,1.87
2017-08-15T02:38:31.532Z,2.30
2017-08-15T02:40:59.277Z,2.70
2017-08-15T02:43:27.129Z,2.30
2017-08-15T02:45:54.854Z,2.70
2017-08-15T02:48:22.699Z,2.47
2017-08-15T02:50:50.490Z,2.67
2017-08-15T02:53:18.198Z,2.33
2017-08-15T02:55:46.005Z,2.40
2017-08-15T02:58:13.764Z,2.30
2017-08-15T03:00:41.500Z,2.40
2017-08-15T03:03:09.315Z,2.17
2017-08-15T03:05:37.282Z,1.90
2017-08-15T03:08:05.076Z,2.20
2017-08-15T03:10:32.788Z,2.30
2017-08-15T03:13:01.800Z,2.13
2017-08-15T03:15:29.544Z,2.40
2017-08-15T03:17:57.325Z,2.03
2017-08-15T03:20:25.068Z,3.10
2017-08-15T03:22:52.801Z,2.60
2017-08-15T03:25:20.523Z,3.40
2017-08-15T03:27:48.274Z,2.13
2017-08-15T03:30:16.251Z,1.80
2017-08-15T03:32:44.005Z,2.50
2017-08-15T03:35:12.030Z,2.10
2017-08-15T03:37:39.910Z,2.20
2017-08-15T03:40:07.635Z,2.10
2017-08-15T03:42:35.411Z,2.30
2017-08-15T03:45:03.171Z,2.37
2017-08-15T03:47:30.961Z,2.67
2017-08-15T03:49:58.821Z,2.20
2017-08-15T03:52:26.584Z,2.30
2017-08-15T03:54:54.485Z,1.90
2017-08-15T03:57:22.298Z,2.60
2017-08-15T03:59:50.053Z,2.60
2017-08-15T04:02:17.813Z,2.63
2017-08-15T04:04:45.568Z,2.23
2017-08-15T04:07:13.688Z,2.13
2017-08-15T04:09:41.417Z,2.50
2017-08-15T04:12:09.291Z,2.50
2017-08-15T04:14:37.134Z,2.03
2017-08-15T04:17:04.971Z,2.17
2017-08-15T04:19:32.707Z,2.47
2017-08-15T04:22:00.545Z,3.17
2017-08-15T04:24:28.258Z,2.23
2017-08-15T04:26:55.955Z,2.17
2017-08-15T04:29:23.687Z,3.33
2017-08-15T04:31:51.386Z,2.23
2017-08-15T04:34:19.106Z,2.30
2017-08-15T04:36:46.806Z,1.90
2017-08-15T04:39:14.538Z,2.17
2017-08-15T04:41:42.293Z,1.90
2017-08-15T04:44:11.097Z,1.90
2017-08-15T04:46:39.034Z,2.30
2017-08-15T04:49:07.539Z,1.97
2017-08-15T04:51:35.256Z,3.43
2017-08-15T04:54:03.813Z,3.50
2017-08-15T04:56:32.487Z,3.27
2017-08-15T04:59:00.222Z,3.30
2017-08-15T05:01:27.929Z,3.03
2017-08-15T05:03:55.635Z,3.40
2017-08-15T05:06:23.388Z,3.20
2017-08-15T05:08:51.100Z,3.03
2017-08-15T05:11:18.791Z,2.97
2017-08-15T05:13:46.514Z,2.30
2017-08-15T05:16:14.229Z,2.30
2017-08-15T05:18:42.027Z,2.23
2017-08-15T05:21:09.735Z,3.80
2017-08-15T05:23:37.509Z,2.30
2017-08-15T05:26:05.241Z,3.53
2017-08-15T05:28:32.974Z,17.20
2017-08-15T05:31:00.750Z,6.00
2017-08-15T05:33:28.486Z,5.30
2017-08-15T05:35:56.313Z,13.40
2017-08-15T05:38:24.048Z,16.07
2017-08-15T05:40:51.773Z,9.20
2017-08-15T05:43:19.596Z,3.90
2017-08-15T05:45:47.291Z,3.10
2017-08-15T05:48:15.073Z,2.53
2017-08-15T05:50:42.828Z,2.67
2017-08-15T05:53:10.627Z,3.20
2017-08-15T05:55:38.490Z,3.67
2017-08-15T05:58:06.291Z,2.57
2017-08-15T06:00:34.135Z,2.90
2017-08-15T06:03:01.818Z,3.40
2017-08-15T06:05:29.495Z,3.37
2017-08-15T06:07:57.232Z,2.70
2017-08-15T06:10:24.981Z,2.87
2017-08-15T06:12:52.739Z,2.93
2017-08-15T06:15:20.475Z,2.30
2017-08-15T06:17:48.171Z,3.17
2017-08-15T06:20:16.313Z,2.87
2017-08-15T06:22:44.003Z,2.80
2017-08-15T06:25:11.773Z,2.87
2017-08-15T06:27:39.551Z,3.07
2017-08-15T06:30:07.268Z,3.00
2017-08-15T06:32:35.001Z,3.93
2017-08-15T06:35:02.769Z,2.60
2017-08-15T06:37:30.536Z,2.77
2017-08-15T06:39:58.301Z,2.90
2017-08-15T06:42:26.074Z,2.90
2017-08-15T06:44:53.801Z,4.43
2017-08-15T06:47:21.485Z,3.40
2017-08-15T06:49:49.921Z,3.20
2017-08-15T06:52:17.606Z,2.87
2017-08-15T06:54:45.333Z,2.40
2017-08-15T06:57:13.110Z,3.00
2017-08-15T06:59:40.889Z,3.30
2017-08-15T07:02:08.635Z,2.90
2017-08-15T07:04:36.342Z,2.00
2017-08-15T07:07:04.094Z,2.70
2017-08-15T07:09:31.825Z,3.27
2017-08-15T07:12:03.112Z,2.80
2017-08-15T07:14:30.953Z,2.50
2017-08-15T07:16:58.690Z,2.23
2017-08-15T07:19:26.523Z,3.10
2017-08-15T07:21:54.281Z,2.27
2017-08-15T07:24:21.987Z,2.00
2017-08-15T07:26:49.734Z,2.27
2017-08-15T07:29:17.503Z,3.20
2017-08-15T07:31:45.278Z,2.60
2017-08-15T07:34:13.015Z,2.47
2017-08-15T07:36:40.736Z,2.10
2017-08-15T07:39:08.516Z,2.20
2017-08-15T07:41:36.208Z,2.37
2017-08-15T07:44:04.033Z,2.70
2017-08-15T07:46:31.822Z,2.80
2017-08-15T07:48:59.596Z,2.10
2017-08-15T07:51:27.447Z,2.60
2017-08-15T07:53:55.241Z,2.57
2017-08-15T07:56:22.973Z,2.00
2017-08-15T07:58:50.778Z,2.27
2017-08-15T08:01:18.555Z,2.37
2017-08-15T08:03:46.337Z,3.07
2017-08-15T08:06:15.177Z,2.40
2017-08-15T08:08:42.940Z,2.50
2017-08-15T08:11:11.787Z,2.33
2017-08-15T08:13:39.562Z,3.17
2017-08-15T08:16:07.290Z,2.47
2017-08-15T08:18:35.063Z,3.00
2017-08-15T08:21:02.775Z,2.70
2017-08-15T08:23:31.644Z,2.60
2017-08-15T08:25:59.416Z,2.00
2017-08-15T08:28:27.223Z,1.63
2017-08-15T08:30:54.926Z,2.53
2017-08-15T08:33:22.676Z,1.73
2017-08-15T08:35:50.408Z,2.50
2017-08-15T08:38:18.194Z,2.80
2017-08-15T08:40:45.974Z,1.87
2017-08-15T08:43:14.552Z,2.07
2017-08-15T08:45:42.287Z,2.20
2017-08-15T08:48:10.074Z,1.80
2017-08-15T08:50:37.839Z,1.97
2017-08-15T08:53:05.691Z,2.43
2017-08-15T08:55:33.403Z,2.17
2017-08-15T08:58:01.168Z,1.90
2017-08-15T09:00:28.868Z,2.40
2017-08-15T09:02:56.611Z,1.70
2017-08-15T09:05:24.371Z,1.77
2017-08-15T09:07:52.101Z,1.77
2017-08-15T09:10:19.874Z,2.20
2017-08-15T09:12:47.634Z,1.73
2017-08-15T09:15:15.429Z,2.07
2017-08-15T09:17:43.183Z,1.80
2017-08-15T09:20:10.947Z,2.10
2017-08-15T09:22:38.736Z,2.00
2017-08-15T09:25:06.653Z,2.00
2017-08-15T09:27:34.454Z,2.10
2017-08-15T09:30:02.244Z,2.00
2017-08-15T09:32:30.118Z,2.13
2017-08-15T09:34:57.888Z,1.63
2017-08-15T09:37:25.624Z,2.00
2017-08-15T09:39:53.473Z,1.50
2017-08-15T09:42:21.235Z,2.27
2017-08-15T09:44:49.011Z,1.70
2017-08-15T09:47:16.813Z,2.03
2017-08-15T09:49:44.585Z,1.97
2017-08-15T09:52:12.301Z,1.70
2017-08-15T09:54:40.225Z,1.50
2017-08-15T09:57:08.556Z,1.83
2017-08-15T09:59:36.313Z,1.27
2017-08-15T10:02:04.068Z,1.63
2017-08-15T10:04:31.826Z,1.57
2017-08-15T10:06:59.634Z,2.30
2017-08-15T10:09:27.552Z,1.70
2017-08-15T10:11:55.391Z,1.90
2017-08-15T10:14:23.265Z,1.40
2017-08-15T10:16:51.098Z,2.00
2017-08-15T10:19:18.875Z,2.00
2017-08-15T10:21:46.697Z,1.90
2017-08-15T10:24:14.418Z,1.50
2017-08-15T10:26:42.108Z,1.90
2017-08-15T10:29:09.855Z,1.80
2017-08-15T10:31:37.544Z,1.47
2017-08-15T10:34:05.341Z,1.33
2017-08-15T10:36:33.121Z,1.70
2017-08-15T10:39:00.837Z,2.07
2017-08-15T10:41:28.674Z,1.20
2017-08-15T10:43:56.396Z,1.47
2017-08-15T10:46:24.587Z,1.30
2017-08-15T10:48:52.308Z,2.70
2017-08-15T10:51:20.066Z,1.43
2017-08-15T10:53:47.857Z,1.47
2017-08-15T10:56:15.580Z,1.60
2017-08-15T10:58:43.389Z,1.83
2017-08-15T11:01:11.171Z,1.73
2017-08-15T11:03:38.886Z,1.30
2017-08-15T11:06:06.678Z,1.37
2017-08-15T11:08:34.466Z,1.83
2017-08-15T11:11:02.159Z,2.13
2017-08-15T11:13:29.911Z,1.40
2017-08-15T11:15:57.678Z,1.63
2017-08-15T11:18:25.490Z,1.60
2017-08-15T11:20:53.266Z,1.53
2017-08-15T11:23:21.042Z,1.30
2017-08-15T11:25:48.700Z,1.37
2017-08-15T11:28:16.506Z,1.33
2017-08-15T11:30:44.204Z,1.53
2017-08-15T11:33:11.968Z,1.40
2017-08-15T11:35:39.763Z,1.67
2017-08-15T11:38:07.530Z,1.27
2017-08-15T11:40:35.338Z,1.70
2017-08-15T11:43:03.118Z,1.30
2017-08-15T11:45:30.973Z,1.20
2017-08-15T11:47:58.660Z,1.13
2017-08-15T11:50:26.446Z,1.40
2017-08-15T11:52:54.169Z,1.20
2017-08-15T11:55:21.859Z,1.07
2017-08-15T11:57:49.622Z,1.30
2017-08-15T12:00:17.351Z,1.33
2017-08-15T12:02:45.078Z,1.10
2017-08-15T12:05:12.855Z,1.50
2017-08-15T12:07:40.638Z,1.20
2017-08-15T12:10:08.337Z,1.00
2017-08-15T12:12:36.156Z,0.80
2017-08-15T12:15:03.946Z,1.60
2017-08-15T12:17:31.691Z,1.17
2017-08-15T12:19:59.484Z,1.53
2017-08-15T12:22:27.216Z,1.17
2017-08-15T12:24:54.988Z,1.60
2017-08-15T12:27:22.760Z,1.33
2017-08-15T12:29:50.467Z,1.13
2017-08-15T12:32:18.155Z,1.10
2017-08-15T12:34:45.895Z,1.10
2017-08-15T12:37:13.584Z,1.20
2017-08-15T12:39:41.310Z,1.33
2017-08-15T12:42:09.011Z,1.50
2017-08-15T12:44:36.818Z,1.07
2017-08-15T12:47:04.508Z,0.97
2017-08-15T12:49:32.242Z,1.03
2017-08-15T12:51:59.934Z,1.10
2017-08-15T12:54:27.622Z,1.40
2017-08-15T12:56:55.359Z,1.00
2017-08-15T12:59:23.044Z,1.23
2017-08-15T13:01:50.777Z,1.40
2017-08-15T13:04:18.560Z,1.30
2017-08-15T13:06:46.370Z,1.30
2017-08-15T13:09:14.130Z,1.80
2017-08-15T13:11:41.840Z,1.10
2017-08-15T13:14:09.574Z,1.17
2017-08-15T13:16:37.378Z,1.60
2017-08-15T13:19:05.186Z,1.50
2017-08-15T13:21:32.960Z,1.40
2017-08-15T13:24:00.661Z,1.40
2017-08-15T13:26:28.443Z,1.57
2017-08-15T13:28:56.224Z,1.13
2017-08-15T13:31:24.019Z,1.47
2017-08-15T13:33:51.823Z,1.53
2017-08-15T13:36:19.608Z,1.43
2017-08-15T13:38:47.475Z,1.67
2017-08-15T13:41:15.217Z,2.70
2017-08-15T13:43:43.037Z,1.30
2017-08-15T13:46:10.805Z,1.23
2017-08-15T13:48:38.604Z,1.83
2017-08-15T13:51:06.377Z,1.80
2017-08-15T13:53:34.141Z,1.50
2017-08-15T13:56:01.889Z,1.47
2017-08-15T13:58:29.693Z,1.20
2017-08-15T14:00:57.518Z,1.50
2017-08-15T14:03:25.328Z,1.73
2017-08-15T14:05:55.893Z,1.57
2017-08-15T14:08:23.758Z,1.47
2017-08-15T14:10:52.137Z,1.53
2017-08-15T14:13:19.950Z,1.77
2017-08-15T14:15:47.870Z,1.40
2017-08-15T14:18:15.801Z,1.20
2017-08-15T14:20:43.539Z,1.13
2017-08-15T14:23:11.297Z,1.30
2017-08-15T14:25:39.113Z,1.20
2017-08-15T14:28:06.867Z,1.50
2017-08-15T14:30:34.589Z,1.90
2017-08-15T14:33:02.349Z,1.10
2017-08-15T14:35:30.115Z,1.90
2017-08-15T14:37:57.900Z,1.27
2017-08-15T14:40:25.729Z,1.40
2017-08-15T14:42:53.488Z,1.60
2017-08-15T14:45:21.359Z,1.70
2017-08-15T14:47:49.104Z,1.50
2017-08-15T14:50:16.881Z,1.40
2017-08-15T14:52:44.708Z,1.50
2017-08-15T14:55:12.440Z,1.40
2017-08-15T14:57:40.317Z,1.93
2017-08-15T15:00:08.047Z,1.10
2017-08-15T15:02:35.822Z,1.60
2017-08-15T15:05:03.668Z,1.77
2017-08-15T15:07:31.516Z,1.30
2017-08-15T15:09:59.364Z,1.13
2017-08-15T15:12:27.095Z,1.20
2017-08-15T15:14:54.917Z,1.57
2017-08-15T15:17:22.728Z,1.83
2017-08-15T15:19:50.517Z,1.40
2017-08-15T15:22:18.384Z,1.70
2017-08-15T15:24:46.121Z,1.60
2017-08-15T15:27:13.954Z,1.40
2017-08-15T15:29:41.743Z,1.47
2017-08-15T15:32:09.565Z,1.43
2017-08-15T15:34:37.613Z,1.47
2017-08-15T15:37:05.318Z,1.40
2017-08-15T15:39:33.029Z,1.70
2017-08-15T15:42:00.835Z,1.10
2017-08-15T15:44:28.658Z,1.90
2017-08-15T15:46:56.512Z,1.53
2017-08-15T15:49:24.265Z,2.03
2017-08-15T15:51:52.093Z,2.00
2017-08-15T15:54:19.894Z,1.80
2017-08-15T15:56:47.620Z,1.40
2017-08-15T15:59:15.388Z,1.40
2017-08-15T16:01:43.185Z,2.10
2017-08-15T16:04:10.955Z,1.77
2017-08-15T16:06:38.723Z,6.90
2017-08-15T16:09:06.488Z,7.40
2017-08-15T16:11:34.205Z,2.83
2017-08-15T16:14:01.992Z,1.87
2017-08-15T16:16:29.704Z,1.70
2017-08-15T16:18:58.392Z,1.77
2017-08-15T16:21:26.142Z,1.70
2017-08-15T16:23:53.853Z,1.73
2017-08-15T16:26:21.642Z,1.80
2017-08-15T16:28:49.427Z,1.57
2017-08-15T16:31:17.303Z,2.00
2017-08-15T16:33:45.050Z,1.77
2017-08-15T16:36:12.749Z,1.60
2017-08-15T16:38:40.497Z,1.77
2017-08-15T16:41:08.272Z,1.60
2017-08-15T16:43:36.130Z,1.67
2017-08-15T16:46:03.936Z,2.00
2017-08-15T16:48:31.747Z,1.47
2017-08-15T16:50:59.577Z,1.40
2017-08-15T16:53:27.537Z,1.30
2017-08-15T16:55:55.362Z,1.97
2017-08-15T16:58:23.185Z,1.80
2017-08-15T17:00:51.025Z,1.80
2017-08-15T17:03:18.818Z,2.00
2017-08-15T17:05:46.630Z,1.60
2017-08-15T17:08:14.427Z,1.70
2017-08-15T17:10:42.461Z,1.57
2017-08-15T17:13:10.343Z,2.00
2017-08-15T17:15:38.189Z,1.70
2017-08-15T17:18:05.925Z,1.70
2017-08-15T17:20:33.811Z,1.70
2017-08-15T17:23:01.572Z,1.80
2017-08-15T17:25:29.543Z,2.40
2017-08-15T17:27:57.377Z,2.40
2017-08-15T17:30:25.289Z,1.60
2017-08-15T17:32:53.105Z,1.67
2017-08-15T17:35:20.964Z,1.60
2017-08-15T17:37:49.688Z,1.83
2017-08-15T17:40:20.223Z,2.03
2017-08-15T17:42:48.038Z,1.70
2017-08-15T17:45:17.133Z,3.63
2017-08-15T17:47:45.008Z,2.00
2017-08-15T17:50:12.728Z,1.33
2017-08-15T17:52:40.490Z,2.00
2017-08-15T17:55:08.358Z,1.53
2017-08-15T17:57:36.182Z,1.70
2017-08-15T18:00:04.054Z,1.67
2017-08-15T18:02:32.003Z,2.30
2017-08-15T18:04:59.823Z,2.23
2017-08-15T18:07:27.602Z,1.70
2017-08-15T18:09:55.516Z,1.73
2017-08-15T18:12:23.428Z,1.73
2017-08-15T18:14:51.189Z,2.33
2017-08-15T18:17:19.074Z,2.30
2017-08-15T18:19:46.839Z,2.43
2017-08-15T18:22:14.661Z,2.20
2017-08-15T18:24:43.358Z,2.17
2017-08-15T18:27:11.137Z,1.60
2017-08-15T18:29:38.929Z,3.50
2017-08-15T18:32:06.759Z,2.87
2017-08-15T18:34:34.601Z,2.90
2017-08-15T18:37:02.372Z,2.80
2017-08-15T18:39:30.209Z,2.10
2017-08-15T18:41:58.015Z,2.77
2017-08-15T18:44:25.886Z,2.17
2017-08-15T18:46:53.713Z,2.20
2017-08-15T18:49:21.609Z,2.20
2017-08-15T18:51:49.484Z,2.27
2017-08-15T18:54:17.421Z,1.87
2017-08-15T18:56:45.278Z,2.57
2017-08-15T18:59:13.185Z,3.10
2017-08-15T19:01:42.545Z,2.90
2017-08-15T19:04:14.519Z,2.30
2017-08-15T19:06:43.450Z,2.23
2017-08-15T19:09:12.608Z,2.40
2017-08-15T19:11:40.544Z,2.03
2017-08-15T19:14:09.025Z,2.20
2017-08-15T19:16:38.182Z,2.07
2017-08-15T19:19:09.205Z,2.63
2017-08-15T19:21:37.332Z,2.17
2017-08-15T19:24:06.876Z,2.27
2017-08-15T19:26:35.736Z,2.70
2017-08-15T19:29:04.121Z,2.67
2017-08-15T19:31:33.497Z,2.30
2017-08-15T19:34:02.258Z,2.53
2017-08-15T19:36:30.509Z,2.53
2017-08-15T19:38:58.492Z,2.23
2017-08-15T19:41:26.387Z,2.50
2017-08-15T19:43:54.228Z,2.60
2017-08-15T19:46:22.028Z,2.43
2017-08-15T19:48:49.916Z,2.27
2017-08-15T19:51:17.693Z,2.43
2017-08-15T19:53:45.652Z,2.20
2017-08-15T19:56:13.567Z,2.03
2017-08-15T19:58:41.536Z,2.40
2017-08-15T20:01:09.413Z,2.60
2017-08-15T20:03:37.416Z,2.30
2017-08-15T20:06:05.278Z,2.23
2017-08-15T20:08:33.164Z,1.87
2017-08-15T20:11:01.137Z,2.43
2017-08-15T20:13:28.936Z,2.70
2017-08-15T20:15:56.712Z,2.33
2017-08-15T20:18:24.809Z,2.73
2017-08-15T20:20:52.628Z,2.93
2017-08-15T20:23:20.433Z,2.80
2017-08-15T20:25:48.354Z,2.87
2017-08-15T20:28:16.950Z,2.83
2017-08-15T20:30:44.860Z,2.50
2017-08-15T20:33:12.694Z,3.00
2017-08-15T20:35:40.565Z,2.43
2017-08-15T20:38:08.501Z,3.13
2017-08-15T20:40:36.484Z,2.43
2017-08-15T20:43:04.261Z,2.53
2017-08-15T20:45:32.100Z,2.63
2017-08-15T20:48:00.732Z,2.50
2017-08-15T20:50:29.397Z,3.20
2017-08-15T20:52:57.370Z,2.43
2017-08-15T20:55:25.783Z,3.17
2017-08-15T20:57:53.666Z,2.07
2017-08-15T21:00:21.449Z,2.80
2017-08-15T21:02:49.314Z,2.50
2017-08-15T21:05:17.183Z,2.80
2017-08-15T21:07:45.023Z,2.67
2017-08-15T21:10:12.752Z,2.40
2017-08-15T21:12:40.518Z,2.90
2017-08-15T21:15:09.249Z,2.70
2017-08-15T21:17:36.976Z,2.27
2017-08-15T21:20:04.738Z,2.63
2017-08-15T21:22:32.523Z,2.73
2017-08-15T21:25:00.307Z,2.67
2017-08-15T21:27:28.067Z,3.53
2017-08-15T21:29:55.939Z,2.63
2017-08-15T21:32:23.738Z,3.10
2017-08-15T21:34:51.639Z,2.60
2017-08-15T21:37:19.455Z,2.20
2017-08-15T21:39:47.456Z,2.37
2017-08-15T21:42:15.190Z,3.20
2017-08-15T21:44:43.031Z,3.03
2017-08-15T21:47:10.793Z,3.13
2017-08-15T21:49:38.609Z,2.67
2017-08-15T21:52:06.416Z,2.17
2017-08-15T21:54:34.311Z,2.53
2017-08-15T21:57:02.138Z,2.33
2017-08-15T21:59:29.932Z,2.80
2017-08-15T22:02:12.576Z,2.07
2017-08-15T22:04:40.316Z,2.33
2017-08-15T22:07:08.113Z,2.20
2017-08-15T22:09:35.980Z,2.60
2017-08-15T22:12:03.885Z,3.27
2017-08-15T22:14:31.833Z,2.90
2017-08-15T22:16:59.665Z,2.40
2017-08-15T22:19:27.510Z,2.13
2017-08-15T22:21:55.323Z,2.57
2017-08-15T22:24:23.252Z,3.30
2017-08-15T22:26:51.058Z,3.33
2017-08-15T22:29:18.786Z,4.67
2017-08-15T22:31:46.596Z,2.37
2017-08-15T22:34:14.373Z,2.17
2017-08-15T22:36:42.278Z,2.53
2017-08-15T22:39:10.125Z,3.27
2017-08-15T22:41:37.925Z,3.00
2017-08-15T22:44:05.828Z,3.00
2017-08-15T22:46:33.601Z,2.83
2017-08-15T22:49:01.460Z,4.23
2017-08-15T22:51:29.259Z,2.23
2017-08-15T22:53:57.146Z,2.37
2017-08-15T22:56:24.930Z,3.40
2017-08-15T22:58:52.712Z,2.77
2017-08-15T23:01:20.720Z,2.80
2017-08-15T23:03:48.667Z,3.07
2017-08-15T23:06:16.468Z,2.93
2017-08-15T23:08:44.326Z,3.20
2017-08-15T23:11:12.789Z,3.03
2017-08-15T23:13:40.594Z,3.27
2017-08-15T23:16:09.522Z,3.20
2017-08-15T23:18:37.388Z,2.80
2017-08-15T23:21:06.183Z,3.23
2017-08-15T23:23:34.041Z,3.00
2017-08-15T23:26:01.893Z,2.90
2017-08-15T23:28:29.719Z,2.67
2017-08-15T23:30:57.568Z,2.40
2017-08-15T23:33:25.491Z,2.73
2017-08-15T23:35:53.291Z,3.17
2017-08-15T23:38:21.228Z,2.93
2017-08-15T23:40:49.410Z,2.80
2017-08-15T23:43:17.234Z,2.90
2017-08-15T23:45:45.040Z,4.00
2017-08-15T23:48:12.817Z,2.90
2017-08-15T23:50:40.718Z,2.60
2017-08-15T23:53:08.569Z,3.43
2017-08-15T23:55:36.410Z,3.17
2017-08-15T23:58:04.214Z,3.73
